Main page
METAR-TAF:

METAR-TAF

Airports :

Jinnah International Airport

Karachi, Pakistan

latitude: 24-54N, longitude: 067-08E, elevation: 21 m

Current weather observation

The report was made 28 minutes ago, at 01:25 UTC
Wind 13 kt from the North/Northeast
Temperature 16°C
Humidity 51%
Pressure 1021 hPa
Visibility: 4000 m
haze

METAR: OPKC 220125Z 02013KT 4000 HZ NSC 16/06 Q1021 NOSIG

Time: 06:53 (01:53 UTC)

Forecast

The report was made 3 hours and 53 minutes ago, at 22:00 UTC
Forecast valid from 22 at 00 UTC to 23 at 06 UTC
Wind 15 kt from the Northeast with gusts up to 25 kt
Visibility: 4000 m
haze
Temporary
from 22 at 00 UTC to 22 at 04 UTC
Wind 10 kt from the Northeast
Visibility: 3000 m
haze

TAF: OPKC 212200Z 2200/2306 05015G25KT 4000 HZ NSC TEMPO 2200/2204 05010KT 3000 HZ NSC

Weather observations and forecasts of more than 4000 airports (METAR and TAF reports).

The available stations are represented by yellow and red dots on the map.

Hover mouse over dot to see the name of the station.

Then click to see weather observations and forecasts.

To change the map : click on the green buttons with a black cross to zoom in, on the green button with a dash to zoom out, or on the green arrows for adjacent maps.


METAR-TAF: